Time;durP1;ratioP1;P1;durP2;ratioP2;P2;SDS_P1;SDS_P2;PMS_P1;PMS_P2;Temp;Humidity;BMP_temperature;BMP_pressure;BME280_temperature;BME280_humidity;BME280_pressure;Samples;Min_cycle;Max_cycle;Signal;HPM_P1;HPM_P2
2023/08/17 00:02:13;;;;;;;8.38;2.03;;;;;;;18.08;97.59;102057.41;5095322;28;20035;-67
2023/08/17 00:04:39;;;;;;;5.80;1.63;;;;;;;18.13;97.70;102076.63;5079719;28;20071;-67
2023/08/17 00:07:05;;;;;;;7.30;1.85;;;;;;;18.06;97.89;102071.22;5095779;28;20361;-67
2023/08/17 00:09:36;;;;;;;8.55;2.03;;;;;;;17.91;98.60;102080.72;5097077;28;20028;-68
2023/08/17 00:12:02;;;;;;;6.25;1.75;;;;;;;17.92;98.69;102071.53;5096696;28;20446;-67
2023/08/17 00:14:27;;;;;;;8.65;1.90;;;;;;;17.86;98.48;102075.13;5097199;28;20239;-67
2023/08/17 00:16:53;;;;;;;6.88;1.80;;;;;;;17.79;98.93;102075.13;5096869;28;20066;-67
2023/08/17 00:19:18;;;;;;;5.45;1.80;;;;;;;17.79;98.96;102067.81;5096692;28;20028;-67
2023/08/17 00:21:44;;;;;;;5.45;1.77;;;;;;;17.75;98.94;102063.81;5078365;28;20024;-67
2023/08/17 00:24:10;;;;;;;8.60;2.08;;;;;;;17.70;99.11;102063.63;5094999;28;20031;-68
2023/08/17 00:26:36;;;;;;;6.35;1.70;;;;;;;17.64;99.42;102066.38;5096696;28;20470;-68
2023/08/17 00:29:01;;;;;;;5.68;1.60;;;;;;;17.54;99.63;102059.47;5094894;28;20035;-67
2023/08/17 00:31:26;;;;;;;9.27;2.08;;;;;;;17.41;99.85;102055.97;5093753;28;20282;-67
2023/08/17 00:33:52;;;;;;;6.72;1.80;;;;;;;17.41;99.88;102058.69;5096057;28;20024;-68
2023/08/17 00:36:17;;;;;;;7.38;1.55;;;;;;;17.37;100.00;102064.56;5095092;28;20047;-67
2023/08/17 00:38:43;;;;;;;6.75;1.90;;;;;;;17.33;99.96;102060.59;5095538;28;20035;-67
2023/08/17 00:41:09;;;;;;;7.35;1.90;;;;;;;17.21;100.00;102062.31;5097240;28;20031;-67
2023/08/17 00:43:34;;;;;;;8.20;1.80;;;;;;;17.23;100.00;102062.94;5097944;28;20055;-67
2023/08/17 00:46:00;;;;;;;5.30;1.70;;;;;;;17.18;100.00;102067.34;5094942;28;20027;-67
2023/08/17 00:48:26;;;;;;;11.00;1.75;;;;;;;17.14;100.00;102070.47;5094685;28;20500;-67
2023/08/17 00:50:53;;;;;;;7.20;1.90;;;;;;;17.11;100.00;102061.91;5094997;28;20048;-67
2023/08/17 00:53:21;;;;;;;7.32;2.20;;;;;;;17.07;100.00;102071.53;5094977;28;20488;-67
2023/08/17 00:55:46;;;;;;;10.20;1.95;;;;;;;16.99;100.00;102066.34;5095988;28;20120;-67
2023/08/17 00:58:12;;;;;;;6.65;1.88;;;;;;;16.86;100.00;102046.25;5095914;28;20040;-67
2023/08/17 01:00:37;;;;;;;9.13;1.90;;;;;;;16.86;100.00;102054.41;5096228;28;20034;-67
2023/08/17 01:03:03;;;;;;;7.25;1.77;;;;;;;16.90;100.00;102063.81;5096798;28;20560;-67
2023/08/17 01:05:31;;;;;;;6.25;1.67;;;;;;;16.91;100.00;102072.81;5096336;28;20024;-67
2023/08/17 01:07:56;;;;;;;7.25;1.63;;;;;;;16.88;100.00;102067.78;5058915;28;20035;-67
2023/08/17 01:10:23;;;;;;;6.28;1.83;;;;;;;16.87;100.00;102057.97;5091729;28;20034;-66
2023/08/17 01:12:58;;;;;;;10.40;1.88;;;;;;;16.90;100.00;102068.41;5074783;28;20119;-66
2023/08/17 01:15:35;;;;;;;6.05;1.70;;;;;;;16.88;100.00;102063.19;5094991;28;20025;-67
2023/08/17 01:18:03;;;;;;;6.70;2.20;;;;;;;16.82;100.00;102069.47;5096206;28;20028;-67
2023/08/17 01:20:31;;;;;;;7.40;1.60;;;;;;;16.78;100.00;102068.19;5094902;28;20115;-67
2023/08/17 01:23:05;;;;;;;10.65;2.30;;;;;;;16.74;100.00;102072.38;5094877;28;20042;-67
2023/08/17 01:25:36;;;;;;;5.60;1.80;;;;;;;16.76;100.00;102078.47;5096564;28;20018;-66
2023/08/17 01:28:02;;;;;;;8.65;2.08;;;;;;;16.71;100.00;102080.09;5097067;28;20024;-67
2023/08/17 01:30:29;;;;;;;8.88;2.30;;;;;;;16.71;100.00;102082.81;5092365;28;20383;-66
2023/08/17 01:33:03;;;;;;;8.60;1.95;;;;;;;16.63;100.00;102067.56;5091390;28;20032;-67
2023/08/17 01:36:08;;;;;;;8.57;2.08;;;;;;;16.72;100.00;102093.50;5094981;28;20085;-70
2023/08/17 01:38:35;;;;;;;7.38;1.83;;;;;;;16.67;100.00;102094.09;5089658;28;20056;-67
2023/08/17 01:41:02;;;;;;;10.20;2.30;;;;;;;16.60;100.00;102095.16;5095978;28;20042;-67
2023/08/17 01:43:28;;;;;;;7.97;1.90;;;;;;;16.45;100.00;102081.75;5095984;28;20088;-67
2023/08/17 01:45:54;;;;;;;7.22;2.47;;;;;;;16.52;100.00;102095.34;5095165;28;20028;-67
2023/08/17 01:48:19;;;;;;;6.78;1.88;;;;;;;16.58;100.00;102102.66;5078553;28;20111;-67
2023/08/17 01:50:45;;;;;;;7.72;1.90;;;;;;;16.61;100.00;102113.13;5096624;28;20729;-68
2023/08/17 01:53:11;;;;;;;7.15;2.00;;;;;;;16.55;100.00;102094.91;5097430;28;20119;-67
2023/08/17 01:55:37;;;;;;;7.53;2.58;;;;;;;16.59;100.00;102107.06;5094496;28;20123;-66
2023/08/17 01:58:02;;;;;;;8.80;2.40;;;;;;;16.62;100.00;102121.09;5096705;28;20028;-67
2023/08/17 02:00:28;;;;;;;11.13;2.40;;;;;;;16.58;100.00;102121.69;5097554;28;20120;-68
2023/08/17 02:02:53;;;;;;;8.02;2.20;;;;;;;16.44;100.00;102112.69;5099543;28;20085;-67
2023/08/17 02:05:19;;;;;;;9.73;2.50;;;;;;;16.49;100.00;102126.50;5099697;28;20047;-67
2023/08/17 02:07:44;;;;;;;11.38;2.58;;;;;;;16.50;100.00;102120.00;5099987;28;20023;-67
2023/08/17 02:10:10;;;;;;;10.07;2.50;;;;;;;16.52;100.00;102111.63;5083492;28;20406;-67
2023/08/17 02:12:35;;;;;;;8.75;2.38;;;;;;;16.53;100.00;102110.63;5083789;28;20028;-67
2023/08/17 02:15:00;;;;;;;9.88;2.40;;;;;;;16.55;100.00;102103.06;5084010;28;20024;-67
2023/08/17 02:17:26;;;;;;;11.80;2.53;;;;;;;16.57;100.00;102104.56;5100096;28;20024;-67
2023/08/17 02:19:52;;;;;;;7.88;2.40;;;;;;;16.43;100.00;102103.69;5083519;28;20028;-67
2023/08/17 02:22:17;;;;;;;12.10;2.80;;;;;;;16.35;100.00;102114.75;5101924;28;20031;-67
2023/08/17 02:24:43;;;;;;;6.90;2.22;;;;;;;16.34;100.00;102121.22;5082060;28;20035;-66
2023/08/17 02:27:09;;;;;;;7.40;2.45;;;;;;;16.17;100.00;102098.19;5099538;28;20077;-67
2023/08/17 02:29:34;;;;;;;9.85;2.58;;;;;;;16.35;100.00;102120.16;5096921;28;20119;-68
2023/08/17 02:32:00;;;;;;;12.25;2.78;;;;;;;16.26;100.00;102096.97;5097305;28;20048;-71
2023/08/17 02:34:26;;;;;;;9.82;2.33;;;;;;;16.28;100.00;102105.75;5097741;28;20104;-67
2023/08/17 02:36:51;;;;;;;9.63;2.63;;;;;;;16.39;100.00;102134.19;5079479;28;20448;-67
2023/08/17 02:39:17;;;;;;;6.22;2.22;;;;;;;16.35;100.00;102132.91;5093711;28;20028;-67
2023/08/17 02:41:44;;;;;;;11.65;2.70;;;;;;;16.32;100.00;102138.75;5095072;28;20471;-68
2023/08/17 02:44:10;;;;;;;10.27;2.70;;;;;;;16.33;100.00;102141.28;5080838;28;20066;-69
2023/08/17 02:46:36;;;;;;;9.52;2.40;;;;;;;16.35;100.00;102146.50;5101134;28;20024;-67
2023/08/17 02:49:01;;;;;;;7.78;2.30;;;;;;;16.31;100.00;102135.22;5098918;28;20106;-67
2023/08/17 02:51:27;;;;;;;12.18;2.60;;;;;;;16.33;100.00;102140.47;5101357;28;20027;-67
2023/08/17 02:53:52;;;;;;;6.88;2.33;;;;;;;16.30;100.00;102144.41;5101720;28;20040;-67
2023/08/17 02:56:17;;;;;;;7.22;2.15;;;;;;;16.26;100.00;102140.44;5082491;28;20059;-67
2023/08/17 02:58:43;;;;;;;6.00;2.10;;;;;;;16.22;100.00;102136.44;5101718;28;20500;-67
2023/08/17 03:01:09;;;;;;;5.97;1.90;;;;;;;16.16;100.00;102140.00;5101203;28;20043;-67
2023/08/17 03:03:35;;;;;;;4.45;1.80;;;;;;;15.95;100.00;102128.19;5082471;28;20072;-66
2023/08/17 03:06:02;;;;;;;8.73;2.50;;;;;;;16.01;100.00;102145.56;5099180;28;20028;-67
2023/08/17 03:08:27;;;;;;;9.57;2.15;;;;;;;15.99;100.00;102134.03;5101284;28;20028;-67
2023/08/17 03:10:54;;;;;;;8.20;2.30;;;;;;;15.97;100.00;102131.56;5081150;28;20126;-67
2023/08/17 03:13:19;;;;;;;9.00;2.30;;;;;;;15.82;100.00;102130.84;5081357;28;20560;-68
2023/08/17 03:15:45;;;;;;;8.88;2.13;;;;;;;15.82;100.00;102128.13;5065477;28;20133;-67
2023/08/17 03:18:10;;;;;;;10.35;2.42;;;;;;;15.81;100.00;102120.19;5100877;28;20116;-67
2023/08/17 03:20:36;;;;;;;9.05;2.20;;;;;;;15.78;100.00;102115.19;5098399;28;20040;-67
2023/08/17 03:23:05;;;;;;;7.38;2.35;;;;;;;15.81;100.00;102120.19;5099259;28;20024;-67
2023/08/17 03:25:31;;;;;;;13.13;2.10;;;;;;;15.78;100.00;102118.72;5098366;28;20019;-67
2023/08/17 03:27:56;;;;;;;5.90;2.13;;;;;;;15.72;100.00;102116.81;5099677;28;20047;-68
2023/08/17 03:30:22;;;;;;;8.80;2.20;;;;;;;15.77;100.00;102125.19;5080791;28;20066;-67
2023/08/17 03:32:47;;;;;;;6.70;2.10;;;;;;;15.73;100.00;102127.47;5099512;28;20024;-67
2023/08/17 03:35:13;;;;;;;5.63;2.10;;;;;;;15.72;100.00;102123.06;5098292;28;20028;-67
2023/08/17 03:37:38;;;;;;;8.88;2.30;;;;;;;15.72;100.00;102116.81;5082538;28;20036;-66
2023/08/17 03:40:05;;;;;;;6.72;2.03;;;;;;;15.73;100.00;102123.94;5102595;28;20051;-67
2023/08/17 03:42:30;;;;;;;4.00;1.85;;;;;;;15.75;100.00;102132.69;5103478;28;20390;-67
2023/08/17 03:44:56;;;;;;;5.88;2.20;;;;;;;15.78;100.00;102124.16;5102246;28;20036;-67
2023/08/17 03:47:21;;;;;;;8.55;2.30;;;;;;;15.69;100.00;102133.50;5097996;28;20032;-66
2023/08/17 03:49:47;;;;;;;9.20;2.70;;;;;;;15.63;100.00;102131.53;5095834;28;20056;-66
2023/08/17 03:52:12;;;;;;;5.47;2.20;;;;;;;15.57;100.00;102135.09;5091252;28;20027;-66
2023/08/17 03:54:37;;;;;;;4.43;2.20;;;;;;;15.47;100.00;102133.56;5096578;28;20595;-67
2023/08/17 03:57:03;;;;;;;5.82;2.10;;;;;;;15.42;100.00;102130.59;5097072;28;20024;-66
2023/08/17 03:59:28;;;;;;;4.78;2.00;;;;;;;15.42;100.00;102129.75;5098158;28;20058;-66
2023/08/17 04:01:54;;;;;;;7.22;2.15;;;;;;;15.44;100.00;102125.81;5079870;28;20040;-67
2023/08/17 04:04:19;;;;;;;4.95;1.90;;;;;;;15.47;100.00;102133.56;5096691;28;20124;-67
2023/08/17 04:06:45;;;;;;;4.75;2.00;;;;;;;15.60;100.00;102140.94;5096321;28;20024;-67
2023/08/17 04:09:10;;;;;;;7.07;2.35;;;;;;;16.25;100.00;102135.19;5099203;28;20486;-74
2023/08/17 04:11:38;;;;;;;7.20;2.10;;;;;;;16.89;100.00;102135.56;5097423;28;20060;-72
2023/08/17 04:14:04;;;;;;;7.47;2.60;;;;;;;17.33;97.83;102139.50;5097614;28;20047;-73
2023/08/17 04:16:30;;;;;;;6.75;2.13;;;;;;;17.95;95.00;102142.72;5096156;28;20024;-73
2023/08/17 04:18:55;;;;;;;6.45;2.22;;;;;;;18.46;92.64;102149.19;5097313;28;20039;-72
2023/08/17 04:21:21;;;;;;;6.13;1.77;;;;;;;18.79;90.06;102138.06;5098555;28;20071;-73
2023/08/17 04:23:46;;;;;;;8.45;1.95;;;;;;;19.04;87.97;102138.09;5096623;28;20084;-72
2023/08/17 04:26:12;;;;;;;6.88;2.03;;;;;;;19.46;86.20;102168.34;5097960;28;20559;-73
2023/08/17 04:28:37;;;;;;;6.32;1.83;;;;;;;19.61;84.38;102155.19;5098013;28;20020;-72
2023/08/17 04:31:03;;;;;;;7.07;1.73;;;;;;;19.97;82.06;102169.06;5097094;28;20032;-72
2023/08/17 04:33:29;;;;;;;4.18;1.63;;;;;;;20.01;81.21;102171.13;5096513;28;20032;-72
2023/08/17 04:35:54;;;;;;;4.57;1.65;;;;;;;19.87;81.13;102175.09;5094933;28;20134;-73
2023/08/17 04:38:20;;;;;;;5.63;1.60;;;;;;;19.40;83.39;102188.34;5097742;28;20089;-73
2023/08/17 04:40:45;;;;;;;3.22;1.52;;;;;;;18.74;86.31;102171.47;5099433;28;20264;-72
2023/08/17 04:43:11;;;;;;;6.47;1.60;;;;;;;19.27;85.27;102183.00;5097364;28;20111;-72
2023/08/17 04:45:36;;;;;;;3.13;1.58;;;;;;;18.75;86.71;102164.97;5095105;28;20757;-72
2023/08/17 04:48:02;;;;;;;8.02;1.70;;;;;;;18.53;89.13;102177.22;5097356;28;20028;-73
2023/08/17 04:50:27;;;;;;;8.52;1.60;;;;;;;18.17;91.50;102181.38;5098586;28;20054;-73
2023/08/17 04:52:53;;;;;;;2.78;1.40;;;;;;;17.77;93.73;102164.34;5098560;28;20035;-73
2023/08/17 04:55:18;;;;;;;6.30;1.40;;;;;;;17.66;95.34;102176.72;5098967;28;20020;-73
2023/08/17 04:57:44;;;;;;;5.82;2.13;;;;;;;17.48;96.69;102185.56;5092944;28;20258;-72
2023/08/17 05:00:10;;;;;;;6.57;1.95;;;;;;;17.30;98.13;102180.72;5091805;28;20388;-73
2023/08/17 05:02:36;;;;;;;5.28;1.80;;;;;;;17.14;98.67;102173.00;5098240;28;20119;-73
2023/08/17 05:05:07;;;;;;;3.58;1.70;;;;;;;17.02;99.26;102166.50;5097172;28;20125;-73
2023/08/17 05:07:33;;;;;;;7.03;1.85;;;;;;;17.08;99.64;102187.44;5097701;28;20456;-73
2023/08/17 05:09:59;;;;;;;9.65;2.20;;;;;;;17.03;100.00;102200.81;5098830;28;20374;-73
2023/08/17 05:12:25;;;;;;;5.82;1.70;;;;;;;16.92;100.00;102188.69;5096692;28;20387;-73
2023/08/17 05:14:50;;;;;;;2.53;1.67;;;;;;;17.16;100.00;102200.84;5096714;28;20039;-73
2023/08/17 05:17:16;;;;;;;8.32;1.77;;;;;;;17.25;100.00;102199.59;5095422;28;20044;-73
2023/08/17 05:19:41;;;;;;;8.38;2.20;;;;;;;17.27;100.00;102204.81;5096228;28;20058;-73
2023/08/17 05:22:11;;;;;;;4.45;2.00;;;;;;;17.39;100.00;102211.28;5079918;28;20156;-73
2023/08/17 05:24:37;;;;;;;5.72;2.00;;;;;;;17.51;100.00;102197.88;5092750;28;20031;-72
2023/08/17 05:27:02;;;;;;;8.10;2.10;;;;;;;17.54;100.00;102195.56;5093798;28;20063;-73
2023/08/17 05:29:31;;;;;;;5.60;1.88;;;;;;;17.72;100.00;102211.25;5097595;28;20032;-73
2023/08/17 05:31:57;;;;;;;8.60;1.90;;;;;;;17.85;100.00;102207.69;5097148;28;20090;-73
2023/08/17 05:34:23;;;;;;;7.70;2.30;;;;;;;17.98;100.00;102215.84;5097969;28;20028;-73
2023/08/17 05:36:48;;;;;;;8.70;2.03;;;;;;;18.02;100.00;102230.69;5101476;28;20025;-73
2023/08/17 05:39:14;;;;;;;7.13;2.20;;;;;;;17.96;100.00;102230.72;5102478;28;20042;-73
2023/08/17 05:41:39;;;;;;;5.38;2.25;;;;;;;18.11;100.00;102230.44;5101081;28;20040;-73
2023/08/17 05:44:06;;;;;;;6.22;2.25;;;;;;;18.11;100.00;102235.88;5084003;28;20071;-73
2023/08/17 05:46:35;;;;;;;5.75;2.35;;;;;;;18.23;100.00;102236.91;5101763;28;20318;-72
2023/08/17 05:49:01;;;;;;;8.57;2.83;;;;;;;18.31;100.00;102236.69;5085718;28;20028;-72
2023/08/17 05:51:27;;;;;;;10.20;3.78;;;;;;;18.34;100.00;102241.69;5104900;28;20028;-73
2023/08/17 05:53:52;;;;;;;8.38;3.08;;;;;;;18.37;100.00;102237.69;5103114;28;20051;-73
2023/08/17 05:56:17;;;;;;;10.55;3.03;;;;;;;18.45;100.00;102241.00;5103035;28;20046;-73
2023/08/17 05:58:43;;;;;;;7.47;2.72;;;;;;;18.45;100.00;102242.91;5103620;28;20035;-73
2023/08/17 06:01:11;;;;;;;6.07;2.80;;;;;;;18.52;100.00;102243.72;5104322;28;20032;-72
2023/08/17 06:03:37;;;;;;;9.25;3.00;;;;;;;18.63;100.00;102234.84;5102135;28;20035;-73
2023/08/17 06:06:06;;;;;;;11.45;3.28;;;;;;;18.82;100.00;102237.72;5099565;28;20035;-71
2023/08/17 06:08:31;;;;;;;9.73;2.92;;;;;;;18.90;100.00;102237.44;5098761;28;20024;-71
2023/08/17 06:10:57;;;;;;;6.55;2.90;;;;;;;18.95;100.00;102243.91;5097353;28;20487;-73
2023/08/17 06:13:22;;;;;;;5.95;2.47;;;;;;;18.97;100.00;102247.28;5097380;28;20035;-73
2023/08/17 06:15:48;;;;;;;11.55;2.75;;;;;;;19.07;100.00;102254.09;5098552;28;20035;-72
2023/08/17 06:18:13;;;;;;;13.73;2.83;;;;;;;19.16;100.00;102259.09;5098215;28;20035;-74
2023/08/17 06:20:38;;;;;;;8.95;2.45;;;;;;;19.32;100.00;102254.16;5101328;28;20035;-72
2023/08/17 06:23:04;;;;;;;12.30;2.45;;;;;;;19.42;100.00;102249.84;5101154;28;20039;-73
2023/08/17 06:25:29;;;;;;;9.55;2.78;;;;;;;19.61;100.00;102258.94;5099862;28;20056;-74
2023/08/17 06:27:55;;;;;;;9.52;2.40;;;;;;;19.62;100.00;102265.22;5101205;28;20038;-73
2023/08/17 06:30:21;;;;;;;7.88;2.38;;;;;;;19.59;100.00;102263.78;5100997;28;20031;-73
2023/08/17 06:32:46;;;;;;;10.73;2.40;;;;;;;19.82;100.00;102263.19;5095704;28;20119;-72
2023/08/17 06:35:12;;;;;;;7.15;2.10;;;;;;;19.95;100.00;102257.56;5099884;28;20032;-73
2023/08/17 06:37:37;;;;;;;9.30;2.25;;;;;;;19.95;100.00;102270.41;5081939;28;20106;-74
2023/08/17 06:40:07;;;;;;;10.30;2.30;;;;;;;20.01;100.00;102285.91;5101376;28;20035;-74
2023/08/17 06:42:32;;;;;;;7.10;1.80;;;;;;;19.91;100.00;102282.84;5101400;28;20032;-73
2023/08/17 06:44:58;;;;;;;5.78;2.08;;;;;;;20.07;99.28;102274.06;5101992;28;20035;-73
2023/08/17 06:47:23;;;;;;;5.93;1.70;;;;;;;19.94;99.47;102279.66;5101632;28;20066;-74
2023/08/17 06:49:49;;;;;;;9.18;1.95;;;;;;;19.82;98.63;102279.56;5100230;28;20146;-73
2023/08/17 06:52:14;;;;;;;5.47;2.05;;;;;;;19.78;98.16;102270.16;5102534;28;20024;-71
2023/08/17 06:54:39;;;;;;;6.00;1.90;;;;;;;19.89;96.73;102294.00;5104838;28;20100;-72
2023/08/17 06:57:05;;;;;;;6.00;1.67;;;;;;;20.05;95.58;102298.03;5114527;28;20024;-72
2023/08/17 06:59:30;;;;;;;10.13;1.70;;;;;;;19.82;95.13;102309.59;5114172;28;20023;-73
2023/08/17 07:01:56;;;;;;;6.22;1.40;;;;;;;19.88;95.00;102307.88;5111563;28;20028;-73
2023/08/17 07:04:22;;;;;;;7.75;1.52;;;;;;;19.68;94.03;102297.97;5102334;28;20028;-72
2023/08/17 07:06:49;;;;;;;4.85;1.60;;;;;;;19.91;93.72;102312.91;5102894;28;20028;-72
2023/08/17 07:09:14;;;;;;;8.65;2.03;;;;;;;19.98;92.95;102305.47;5083007;28;20035;-72
2023/08/17 07:11:39;;;;;;;4.28;1.60;;;;;;;20.16;91.79;102319.16;5095894;28;20035;-72
2023/08/17 07:14:06;;;;;;;4.10;1.40;;;;;;;20.31;91.34;102320.69;5099246;28;20131;-72
2023/08/17 07:16:32;;;;;;;4.15;1.40;;;;;;;20.73;90.19;102321.69;5101595;28;20032;-73
2023/08/17 07:18:57;;;;;;;5.53;1.58;;;;;;;20.61;90.39;102313.41;5098200;28;20037;-73
2023/08/17 07:21:23;;;;;;;7.30;1.95;;;;;;;20.67;90.60;102322.63;5099449;28;20103;-73
2023/08/17 07:23:50;;;;;;;6.63;1.48;;;;;;;20.49;90.44;102326.16;5098741;28;20028;-73
2023/08/17 07:26:16;;;;;;;5.57;1.50;;;;;;;20.59;89.79;102303.75;5082073;28;20194;-73
2023/08/17 07:28:41;;;;;;;4.40;1.35;;;;;;;20.63;88.47;102318.66;5100102;28;20058;-73
2023/08/17 07:31:07;;;;;;;5.80;1.77;;;;;;;20.87;87.82;102314.97;5082172;28;20075;-73
2023/08/17 07:33:32;;;;;;;5.22;1.55;;;;;;;20.69;88.05;102319.63;5098692;28;20032;-74
2023/08/17 07:35:58;;;;;;;7.63;1.67;;;;;;;20.58;87.83;102323.97;5082896;28;20032;-72
2023/08/17 07:38:23;;;;;;;7.70;1.40;;;;;;;20.67;87.53;102317.13;5099384;28;20394;-73
2023/08/17 07:40:49;;;;;;;5.15;1.42;;;;;;;20.88;87.20;102315.81;5099343;28;20035;-73
2023/08/17 07:43:14;;;;;;;5.93;1.52;;;;;;;20.91;86.54;102320.81;5100430;28;20056;-73
2023/08/17 07:45:40;;;;;;;3.53;1.55;;;;;;;20.84;86.59;102315.44;5082229;28;20046;-72
2023/08/17 07:48:05;;;;;;;7.00;1.63;;;;;;;20.76;87.45;102331.31;5077705;28;20428;-72
2023/08/17 07:50:31;;;;;;;6.35;1.30;;;;;;;20.83;87.06;102329.34;5097043;28;20060;-73
2023/08/17 07:52:56;;;;;;;4.35;1.20;;;;;;;20.59;85.50;102306.50;5099935;28;20046;-72
2023/08/17 07:55:22;;;;;;;5.25;1.73;;;;;;;21.16;84.31;102334.38;5098599;28;20055;-73
2023/08/17 07:57:47;;;;;;;5.03;1.40;;;;;;;20.93;83.42;102334.28;5097257;28;20035;-73
2023/08/17 08:00:13;;;;;;;6.20;1.70;;;;;;;21.02;83.08;102332.88;5097550;28;20024;-73
2023/08/17 08:02:38;;;;;;;7.13;2.15;;;;;;;21.26;82.10;102336.56;5095414;28;20036;-72
2023/08/17 08:05:04;;;;;;;7.60;1.80;;;;;;;21.52;81.74;102330.69;5097297;28;20088;-73
2023/08/17 08:07:29;;;;;;;10.80;1.90;;;;;;;21.67;80.52;102337.63;5097118;28;20016;-73
2023/08/17 08:09:55;;;;;;;6.95;2.10;;;;;;;21.74;79.40;102335.59;5097980;28;20035;-73
2023/08/17 08:12:20;;;;;;;4.25;1.75;;;;;;;21.89;79.23;102343.38;5064351;28;20024;-73
2023/08/17 08:14:46;;;;;;;4.68;1.90;;;;;;;22.00;78.60;102346.09;5097347;28;20069;-74
2023/08/17 08:17:11;;;;;;;5.03;1.50;;;;;;;21.77;78.55;102335.97;5080080;28;20089;-73
2023/08/17 08:19:37;;;;;;;5.55;1.45;;;;;;;21.25;78.86;102340.34;5098293;28;20115;-73
2023/08/17 08:22:02;;;;;;;5.57;1.70;;;;;;;20.76;79.10;102336.78;5080427;28;20027;-72
2023/08/17 08:24:33;;;;;;;5.40;1.50;;;;;;;21.00;78.22;102349.53;5079982;28;20055;-73
2023/08/17 08:26:59;;;;;;;4.68;1.40;;;;;;;20.84;77.98;102351.00;5098527;28;20020;-73
2023/08/17 08:29:24;;;;;;;4.32;1.20;;;;;;;21.01;77.61;102355.84;5096491;28;20054;-73
2023/08/17 08:31:49;;;;;;;3.22;1.30;;;;;;;20.98;77.60;102357.13;5079328;28;20035;-73
2023/08/17 08:34:15;;;;;;;5.18;1.40;;;;;;;21.12;77.37;102355.03;5098460;28;20028;-73
2023/08/17 08:36:40;;;;;;;4.95;1.55;;;;;;;21.02;76.90;102352.03;5097856;28;20027;-72
2023/08/17 08:39:05;;;;;;;6.00;1.63;;;;;;;20.99;76.97;102355.22;5097128;28;20028;-73
2023/08/17 08:41:32;;;;;;;5.88;1.50;;;;;;;21.05;76.92;102359.78;5099495;28;20092;-73
2023/08/17 08:43:58;;;;;;;5.10;1.42;;;;;;;20.86;77.90;102361.69;5098093;28;20101;-72
2023/08/17 08:46:29;;;;;;;2.47;1.42;;;;;;;20.93;77.99;102362.47;5097290;28;20291;-73
2023/08/17 08:48:54;;;;;;;4.80;1.50;;;;;;;20.58;79.26;102368.56;5094824;28;20123;-72
2023/08/17 08:51:26;;;;;;;4.25;1.38;;;;;;;20.69;78.59;102374.34;5090954;28;20468;-72
2023/08/17 08:54:00;;;;;;;5.15;1.50;;;;;;;20.81;78.03;102359.66;5097532;28;20027;-72
2023/08/17 08:56:26;;;;;;;3.88;1.33;;;;;;;21.22;76.34;102362.69;5097791;28;20092;-73
2023/08/17 08:58:52;;;;;;;5.03;1.33;;;;;;;21.21;76.03;102361.03;5079748;28;20038;-73
2023/08/17 09:01:19;;;;;;;5.78;1.55;;;;;;;20.96;75.62;102351.06;5079757;28;20031;-72
2023/08/17 09:03:47;;;;;;;3.72;1.50;;;;;;;21.08;75.87;102357.41;5096353;28;20027;-73
2023/08/17 09:06:13;;;;;;;4.53;1.40;;;;;;;21.31;75.24;102366.78;5096463;28;20020;-73
2023/08/17 09:08:40;;;;;;;4.90;1.60;;;;;;;21.34;74.94;102366.31;5096277;28;20032;-72
2023/08/17 09:11:05;;;;;;;4.70;1.42;;;;;;;21.45;74.02;102361.97;5097079;28;20075;-73
2023/08/17 09:13:31;;;;;;;4.88;1.20;;;;;;;21.15;74.24;102346.38;5096930;28;20425;-73
2023/08/17 09:15:58;;;;;;;4.22;1.20;;;;;;;21.34;74.30;102371.81;5096917;28;20032;-73
2023/08/17 09:18:24;;;;;;;3.92;1.20;;;;;;;21.23;74.21;102373.44;5078764;28;20034;-72
2023/08/17 09:20:52;;;;;;;3.30;1.10;;;;;;;21.17;74.39;102365.31;5058830;28;20118;-73
2023/08/17 09:23:22;;;;;;;4.13;1.00;;;;;;;21.02;73.49;102366.53;5094223;28;20050;-73
2023/08/17 09:25:49;;;;;;;2.38;1.13;;;;;;;21.49;71.22;102368.66;5095563;28;20027;-73
2023/08/17 09:28:20;;;;;;;3.83;1.00;;;;;;;21.50;70.75;102365.69;5093807;28;20039;-73
2023/08/17 09:31:00;;;;;;;5.13;1.20;;;;;;;21.85;70.73;102370.38;5080173;28;20032;-73
2023/08/17 09:33:32;;;;;;;3.00;1.08;;;;;;;21.99;69.83;102341.69;5097126;28;20112;-72
2023/08/17 09:35:59;;;;;;;3.20;1.33;;;;;;;22.26;68.24;102372.22;5095969;28;20031;-73
2023/08/17 09:38:26;;;;;;;4.13;1.40;;;;;;;21.71;69.28;102383.47;5096912;28;20024;-72
2023/08/17 09:40:52;;;;;;;4.32;1.20;;;;;;;22.23;69.10;102371.88;5096475;28;20119;-72
2023/08/17 09:43:18;;;;;;;2.78;1.05;;;;;;;22.51;69.20;102380.19;5095981;28;20027;-73
2023/08/17 09:45:47;;;;;;;3.60;1.27;;;;;;;22.64;68.93;102370.03;5097508;28;20092;-73
2023/08/17 09:48:17;;;;;;;4.20;1.30;;;;;;;22.68;68.22;102368.47;5096057;28;20077;-73
2023/08/17 09:50:44;;;;;;;3.13;1.10;;;;;;;21.98;68.36;102366.59;5095388;28;20048;-73
2023/08/17 09:53:18;;;;;;;3.72;1.10;;;;;;;21.83;68.63;102353.38;5108808;28;20028;-72
2023/08/17 09:55:45;;;;;;;3.40;1.20;;;;;;;21.84;69.33;102379.69;5092433;28;20028;-73
2023/08/17 09:58:15;;;;;;;4.03;1.10;;;;;;;21.89;68.90;102371.59;5110877;28;20020;-73
2023/08/17 10:00:46;;;;;;;3.30;1.08;;;;;;;22.26;69.08;102380.47;5097756;28;20042;-72
2023/08/17 10:03:13;;;;;;;4.43;1.50;;;;;;;22.48;68.86;102372.47;5097104;28;20111;-72
2023/08/17 10:05:47;;;;;;;5.40;1.20;;;;;;;22.56;68.59;102356.69;5097575;28;20027;-73
2023/08/17 10:08:19;;;;;;;2.40;1.20;;;;;;;22.17;68.30;102373.66;5098499;28;20068;-72
2023/08/17 10:10:46;;;;;;;4.18;1.20;;;;;;;22.18;67.85;102377.22;5097960;28;20035;-73
2023/08/17 10:13:22;;;;;;;3.85;1.70;;;;;;;21.84;68.76;102366.00;5097301;28;20080;-73
2023/08/17 10:16:06;;;;;;;5.70;1.60;;;;;;;21.92;68.34;102373.88;5095764;28;20024;-73
2023/08/17 10:18:34;;;;;;;2.40;1.20;;;;;;;22.14;67.82;102371.34;5097111;28;20106;-73
2023/08/17 10:21:10;;;;;;;4.88;1.40;;;;;;;22.01;68.30;102366.94;5097300;28;20098;-73
2023/08/17 10:23:38;;;;;;;4.35;1.10;;;;;;;22.33;67.93;102366.63;5098466;28;20030;-73
2023/08/17 10:26:04;;;;;;;2.38;1.00;;;;;;;22.35;67.43;102358.13;5100210;28;20017;-73
2023/08/17 10:28:32;;;;;;;2.92;1.10;;;;;;;22.58;66.59;102360.00;5100135;28;20391;-72
2023/08/17 10:30:58;;;;;;;3.10;1.20;;;;;;;22.35;67.28;102361.75;5100565;28;20028;-73
2023/08/17 10:33:25;;;;;;;3.65;1.80;;;;;;;22.11;67.71;102371.00;5099325;28;20039;-73
2023/08/17 10:35:52;;;;;;;1.27;0.90;;;;;;;21.87;67.73;102360.03;5098496;28;20016;-72
2023/08/17 10:38:17;;;;;;;3.80;1.20;;;;;;;22.25;66.56;102350.53;5064626;28;20028;-73
2023/08/17 10:40:43;;;;;;;2.67;1.00;;;;;;;22.25;65.83;102366.97;5065250;28;20509;-73
2023/08/17 10:43:08;;;;;;;3.83;1.20;;;;;;;22.77;64.82;102342.31;5099080;28;20024;-73
2023/08/17 10:45:36;;;;;;;3.53;1.17;;;;;;;23.25;64.45;102354.81;5098606;28;20123;-73
2023/08/17 10:48:05;;;;;;;4.18;1.27;;;;;;;23.60;64.19;102364.75;5098581;28;20035;-73
2023/08/17 10:50:30;;;;;;;6.38;1.60;;;;;;;23.64;63.17;102369.53;5099662;28;20577;-73
2023/08/17 10:52:55;;;;;;;4.95;1.45;;;;;;;23.80;63.57;102370.63;5098303;28;20097;-73
2023/08/17 10:55:39;;;;;;;3.47;1.45;;;;;;;23.77;61.41;102356.56;5098431;28;20028;-73
2023/08/17 10:58:05;;;;;;;2.90;1.00;;;;;;;23.85;62.80;102365.22;5097961;28;20085;-72
2023/08/17 11:00:36;;;;;;;4.45;1.15;;;;;;;23.54;63.15;102365.75;5080515;28;20024;-73
2023/08/17 11:03:16;;;;;;;4.88;1.10;;;;;;;23.30;61.34;102368.63;5097976;28;20035;-73
2023/08/17 11:05:51;;;;;;;2.78;1.10;;;;;;;22.79;63.70;102334.69;5099526;28;20487;-73
2023/08/17 11:08:20;;;;;;;4.40;1.40;;;;;;;23.58;62.91;102380.69;5097703;28;20049;-73
2023/08/17 11:11:04;;;;;;;2.58;1.40;;;;;;;23.60;62.70;102365.59;5099157;28;20031;-73
2023/08/17 11:13:32;;;;;;;2.72;1.10;;;;;;;23.79;62.53;102360.72;5099373;28;20387;-73
2023/08/17 11:15:59;;;;;;;6.40;1.52;;;;;;;23.44;64.01;102381.00;5098171;28;20032;-73
2023/08/17 11:18:25;;;;;;;3.05;1.55;;;;;;;23.30;64.35;102379.63;5097257;28;20024;-73
2023/08/17 11:20:51;;;;;;;3.40;1.30;;;;;;;23.62;63.85;102392.84;5098649;28;20056;-73